Time;durP1;ratioP1;P1;durP2;ratioP2;P2;SDS_P1;SDS_P2;PMS_P1;PMS_P2;Temp;Humidity;BMP_temperature;BMP_pressure;BME280_temperature;BME280_humidity;BME280_pressure;Samples;Min_cycle;Max_cycle;Signal;HPM_P1;HPM_P2
2021/11/07 00:01:15;;;;;;;7.43;6.13;;;6.70;99.90;;;;;;5018556;28;20060;-88
2021/11/07 00:03:55;;;;;;;6.97;5.82;;;6.80;99.90;;;;;;5018840;28;20064;-87
2021/11/07 00:06:27;;;;;;;8.90;5.57;;;6.70;99.90;;;;;;5018144;28;20057;-87
2021/11/07 00:09:11;;;;;;;6.93;6.25;;;6.80;99.90;;;;;;5035747;28;20046;-87
2021/11/07 00:11:40;;;;;;;;;;;6.80;99.90;;;;;;5018834;28;20062;-87
2021/11/07 00:14:09;;;;;;;9.25;5.78;;;6.80;99.90;;;;;;5035719;28;20453;-88
2021/11/07 00:16:39;;;;;;;6.53;5.75;;;6.80;99.90;;;;;;5018127;28;20099;-87
2021/11/07 00:19:36;;;;;;;6.88;6.03;;;6.80;99.90;;;;;;5035870;28;20049;-88
2021/11/07 00:27:08;;;;;;;7.45;6.22;;;6.80;99.90;;;;;;5055639;28;20101;-88
2021/11/07 00:29:40;;;;;;;8.75;6.93;;;6.80;99.90;;;;;;5025339;28;20045;-87
2021/11/07 00:37:17;;;;;;;11.07;6.63;;;6.70;99.90;;;;;;5035507;28;20045;-87
2021/11/07 00:42:21;;;;;;;8.27;6.10;;;6.70;99.90;;;;;;5034809;28;20060;-88
2021/11/07 00:47:42;;;;;;;7.70;6.15;;;6.60;99.90;;;;;;5035052;28;20413;-88
2021/11/07 00:50:13;;;;;;;9.15;6.50;;;6.60;99.90;;;;;;5035276;28;20120;-90
2021/11/07 00:52:54;;;;;;;8.85;6.40;;;6.60;99.90;;;;;;5017742;28;20105;-88
2021/11/07 00:55:37;;;;;;;7.55;5.63;;;6.60;99.90;;;;;;5034902;28;20084;-87
2021/11/07 00:58:11;;;;;;;9.63;6.30;;;6.70;99.90;;;;;;5017770;28;20051;-87
2021/11/07 01:00:48;;;;;;;8.48;5.85;;;6.80;99.90;;;;;;5034951;28;20578;-88
2021/11/07 01:03:18;;;;;;;7.55;6.18;;;6.80;99.90;;;;;;5018218;28;20045;-86
2021/11/07 01:05:44;;;;;;;11.55;7.47;;;6.90;99.90;;;;;;5017221;28;20524;-87
2021/11/07 01:08:11;;;;;;;8.63;6.60;;;7.00;99.90;;;;;;5017424;28;20565;-86
2021/11/07 01:10:38;;;;;;;9.48;6.32;;;6.90;99.90;;;;;;5034401;28;20074;-90
2021/11/07 01:13:06;;;;;;;9.48;6.13;;;6.90;99.90;;;;;;5017425;28;20041;-86
2021/11/07 01:15:33;;;;;;;9.23;6.68;;;7.00;99.90;;;;;;5034560;28;20431;-88
2021/11/07 01:18:00;;;;;;;8.55;6.82;;;6.90;99.90;;;;;;5017129;28;20084;-87
2021/11/07 01:20:30;;;;;;;8.10;6.78;;;6.90;99.90;;;;;;5016952;28;20045;-91
2021/11/07 01:25:26;;;;;;;10.73;7.60;;;6.70;99.90;;;;;;5034673;28;20132;-88
2021/11/07 01:27:55;;;;;;;13.95;8.60;;;6.60;99.90;;;;;;5016882;28;20056;-87
2021/11/07 01:30:25;;;;;;;12.98;9.00;;;6.50;99.90;;;;;;5034153;28;20129;-88
2021/11/07 01:33:03;;;;;;;12.52;9.32;;;6.40;99.90;;;;;;5034544;28;20049;-87
2021/11/07 01:35:39;;;;;;;12.60;9.23;;;6.30;99.90;;;;;;5016892;28;20049;-88
2021/11/07 01:41:00;;;;;;;12.55;10.00;;;6.10;99.90;;;;;;5034620;28;20048;-90
2021/11/07 01:43:22;;;;;;;11.88;9.05;;;6.00;99.90;;;;;;5050102;28;20079;-88
2021/11/07 01:45:56;;;;;;;13.70;9.05;;;6.00;99.90;;;;;;5049838;28;20084;-88
2021/11/07 01:48:27;;;;;;;;;;;6.00;99.90;;;;;;5034555;28;20046;-88
2021/11/07 01:50:56;;;;;;;13.73;9.70;;;6.00;99.90;;;;;;5034067;28;19921;-87
2021/11/07 01:53:33;;;;;;;15.05;10.48;;;5.90;99.90;;;;;;5016671;28;20099;-88
2021/11/07 01:56:06;;;;;;;14.43;10.65;;;5.90;99.90;;;;;;5016813;28;20428;-87
2021/11/07 01:58:34;;;;;;;17.13;11.02;;;5.80;99.90;;;;;;5033977;28;20052;-88
2021/11/07 02:01:02;;;;;;;16.15;10.95;;;5.80;99.90;;;;;;5017160;28;20054;-89
2021/11/07 02:03:29;;;;;;;13.77;10.63;;;5.80;99.90;;;;;;5033646;28;20041;-88
2021/11/07 02:05:58;;;;;;;16.92;10.43;;;5.80;99.90;;;;;;5016829;28;20421;-88
2021/11/07 02:08:25;;;;;;;14.80;9.93;;;5.70;99.90;;;;;;5016794;28;20055;-88
2021/11/07 02:10:54;;;;;;;17.15;10.70;;;5.70;99.90;;;;;;5033654;28;20147;-88
2021/11/07 02:13:22;;;;;;;18.40;10.85;;;5.60;99.90;;;;;;5016308;28;20049;-89
2021/11/07 02:15:50;;;;;;;15.52;10.73;;;5.50;99.90;;;;;;5016268;28;20127;-88
2021/11/07 02:18:18;;;;;;;13.35;10.30;;;5.60;99.90;;;;;;5016221;28;20076;-88
2021/11/07 02:20:46;;;;;;;13.38;10.27;;;5.50;99.90;;;;;;5033415;28;20486;-89
2021/11/07 02:23:18;;;;;;;14.68;10.63;;;5.60;99.90;;;;;;5016074;28;20133;-88
2021/11/07 02:25:46;;;;;;;12.35;9.77;;;5.70;99.90;;;;;;5015838;28;20056;-87
2021/11/07 02:28:30;;;;;;;12.77;9.48;;;5.70;99.90;;;;;;5016060;28;20053;-87
2021/11/07 02:30:58;;;;;;;14.00;9.45;;;5.70;99.90;;;;;;5016095;28;20052;-87
2021/11/07 02:33:25;;;;;;;14.32;10.35;;;5.80;99.90;;;;;;5016014;28;20045;-88
2021/11/07 02:35:56;;;;;;;12.18;9.32;;;5.80;99.90;;;;;;5016699;28;20264;-85
2021/11/07 02:38:23;;;;;;;12.15;9.32;;;5.90;99.90;;;;;;5033223;28;20048;-88
2021/11/07 02:40:50;;;;;;;13.98;9.05;;;5.90;99.90;;;;;;5033293;28;20045;-87
2021/11/07 02:43:17;;;;;;;12.95;9.20;;;5.90;99.90;;;;;;5033304;28;20045;-88
2021/11/07 02:45:44;;;;;;;11.25;8.95;;;5.90;99.90;;;;;;5016054;28;20059;-88
2021/11/07 02:48:10;;;;;;;14.68;9.25;;;5.80;99.90;;;;;;5033575;28;20056;-88
2021/11/07 02:50:37;;;;;;;12.15;8.65;;;5.80;99.90;;;;;;5016027;28;20510;-89
2021/11/07 02:53:04;;;;;;;12.88;9.85;;;5.90;99.90;;;;;;5016486;28;20053;-87
2021/11/07 02:55:31;;;;;;;11.63;8.98;;;5.80;99.90;;;;;;5015934;28;20049;-87
2021/11/07 02:57:59;;;;;;;14.23;9.75;;;5.90;99.90;;;;;;5016625;28;20045;-88
2021/11/07 03:00:31;;;;;;;14.20;9.57;;;5.90;99.90;;;;;;5030037;28;20211;-87
2021/11/07 03:02:58;;;;;;;14.82;9.35;;;5.80;99.90;;;;;;5031725;28;20050;-87
2021/11/07 03:05:29;;;;;;;12.02;9.75;;;5.80;99.90;;;;;;5015439;28;20051;-88
2021/11/07 03:07:56;;;;;;;13.35;9.45;;;5.80;99.90;;;;;;5033233;28;20056;-86
2021/11/07 03:10:25;;;;;;;13.20;9.65;;;5.70;99.90;;;;;;5012229;28;20494;-88
2021/11/07 03:13:05;;;;;;;12.45;9.30;;;5.80;99.90;;;;;;5013373;28;20049;-87
2021/11/07 03:15:33;;;;;;;12.68;9.88;;;5.70;99.90;;;;;;5013364;28;20490;-88
2021/11/07 03:18:01;;;;;;;11.75;9.15;;;5.70;99.90;;;;;;5016368;28;20411;-87
2021/11/07 03:20:28;;;;;;;10.95;8.57;;;5.70;99.90;;;;;;5016517;28;20049;-88
2021/11/07 03:22:56;;;;;;;10.75;8.48;;;5.70;99.90;;;;;;5016027;28;20060;-88
2021/11/07 03:25:24;;;;;;;14.40;9.10;;;5.70;99.90;;;;;;5017094;28;20054;-85
2021/11/07 03:27:53;;;;;;;12.07;9.55;;;5.70;99.90;;;;;;5015902;28;20120;-87
2021/11/07 03:32:58;;;;;;;11.00;8.48;;;5.70;99.90;;;;;;5017041;28;20050;-87
2021/11/07 03:35:29;;;;;;;10.50;8.20;;;5.70;99.90;;;;;;5015706;28;20046;-87
2021/11/07 03:37:56;;;;;;;11.27;9.23;;;5.70;99.90;;;;;;5015856;28;20046;-86
2021/11/07 03:40:25;;;;;;;11.60;9.40;;;5.70;99.90;;;;;;5015845;28;20582;-87
2021/11/07 03:42:55;;;;;;;9.68;8.40;;;5.70;99.90;;;;;;5016118;28;20121;-88
2021/11/07 03:45:22;;;;;;;11.60;9.18;;;5.80;99.90;;;;;;5016080;28;20060;-88
2021/11/07 03:47:49;;;;;;;12.00;9.80;;;5.80;99.90;;;;;;5015941;28;20391;-88
2021/11/07 03:50:17;;;;;;;12.15;8.95;;;5.80;99.90;;;;;;5016527;28;20050;-87
2021/11/07 03:52:44;;;;;;;12.43;9.57;;;5.80;99.90;;;;;;5016667;28;20050;-86
2021/11/07 03:55:11;;;;;;;10.73;9.23;;;5.70;99.90;;;;;;5015753;28;20060;-87
2021/11/07 03:57:38;;;;;;;11.88;9.90;;;5.80;99.90;;;;;;5015790;28;20049;-89
2021/11/07 04:00:08;;;;;;;15.43;10.32;;;5.70;99.90;;;;;;5016678;28;20052;-87
2021/11/07 04:02:35;;;;;;;12.63;9.63;;;5.70;99.90;;;;;;5015588;28;20067;-87
2021/11/07 04:05:03;;;;;;;12.00;9.55;;;5.70;99.90;;;;;;5015652;28;20045;-87
2021/11/07 04:07:30;;;;;;;11.98;10.05;;;5.70;99.90;;;;;;5015512;28;20096;-87
2021/11/07 04:09:56;;;;;;;12.27;10.20;;;5.70;99.90;;;;;;5015412;28;20141;-87
2021/11/07 04:12:23;;;;;;;11.82;9.77;;;5.70;99.90;;;;;;5015675;28;20054;-87
2021/11/07 04:14:50;;;;;;;12.73;9.77;;;5.60;99.90;;;;;;5015708;28;20050;-87
2021/11/07 04:17:17;;;;;;;13.48;10.43;;;5.60;99.90;;;;;;5030268;28;20050;-88
2021/11/07 04:19:44;;;;;;;13.55;10.32;;;5.60;99.90;;;;;;5032603;28;20129;-88
2021/11/07 04:22:12;;;;;;;14.18;11.60;;;5.60;99.90;;;;;;5014920;28;20487;-88
2021/11/07 04:24:40;;;;;;;13.88;11.23;;;5.50;99.90;;;;;;5014785;28;20052;-87
2021/11/07 04:27:07;;;;;;;15.25;11.23;;;5.50;99.90;;;;;;5015717;28;20141;-87
2021/11/07 04:29:34;;;;;;;15.77;12.25;;;5.50;99.90;;;;;;5015009;28;20050;-88
2021/11/07 04:32:03;;;;;;;16.77;11.77;;;5.30;99.90;;;;;;5014937;28;20054;-88
2021/11/07 04:34:30;;;;;;;16.00;12.30;;;5.30;99.90;;;;;;5014849;28;20045;-88
2021/11/07 04:36:57;;;;;;;14.13;11.52;;;5.30;99.90;;;;;;5015029;28;20561;-87
2021/11/07 04:39:26;;;;;;;17.02;12.52;;;5.30;99.90;;;;;;5014965;28;20050;-88
2021/11/07 04:41:57;;;;;;;17.98;12.48;;;5.20;99.90;;;;;;5014625;28;20103;-88
2021/11/07 04:44:24;;;;;;;15.88;12.23;;;5.30;99.90;;;;;;5014516;28;20411;-88
2021/11/07 04:46:51;;;;;;;14.55;11.48;;;5.30;99.90;;;;;;5014256;28;20056;-88
2021/11/07 04:49:18;;;;;;;15.05;12.55;;;5.20;99.90;;;;;;5015477;28;20052;-87
2021/11/07 04:51:46;;;;;;;16.02;11.45;;;5.30;99.90;;;;;;5015360;28;20566;-88
2021/11/07 04:54:13;;;;;;;14.65;11.55;;;5.20;99.90;;;;;;5015203;28;20475;-88
2021/11/07 04:56:40;;;;;;;15.25;11.80;;;5.30;99.90;;;;;;5013832;28;20042;-87
2021/11/07 04:59:07;;;;;;;16.05;12.93;;;5.10;99.90;;;;;;5014063;28;20049;-87
2021/11/07 05:01:33;;;;;;;15.18;11.88;;;5.10;99.90;;;;;;5015267;28;20506;-87
2021/11/07 05:04:01;;;;;;;16.80;12.32;;;5.10;99.90;;;;;;5014522;28;20050;-87
2021/11/07 05:06:28;;;;;;;16.13;11.90;;;5.10;99.90;;;;;;5014021;28;20077;-86
2021/11/07 05:08:55;;;;;;;15.43;11.25;;;5.10;99.90;;;;;;5014210;28;20413;-87
2021/11/07 05:11:22;;;;;;;16.25;11.20;;;5.10;99.90;;;;;;5013982;28;20072;-88
2021/11/07 05:13:49;;;;;;;15.80;12.00;;;5.10;99.90;;;;;;5015146;28;20053;-87
2021/11/07 05:16:15;;;;;;;17.50;12.38;;;5.00;99.90;;;;;;5014031;28;20417;-86
2021/11/07 05:18:43;;;;;;;16.05;11.90;;;5.00;99.90;;;;;;5013981;28;20049;-88
2021/11/07 05:21:11;;;;;;;16.40;11.45;;;5.00;99.90;;;;;;5014419;28;20053;-88
2021/11/07 05:23:38;;;;;;;15.82;12.23;;;4.90;99.90;;;;;;5014009;28;20041;-87
2021/11/07 05:26:05;;;;;;;14.75;11.93;;;4.90;99.90;;;;;;5014810;28;20050;-87
2021/11/07 05:28:34;;;;;;;15.48;11.40;;;4.90;99.90;;;;;;5013691;28;20049;-87
2021/11/07 05:31:02;;;;;;;12.85;9.90;;;4.90;99.90;;;;;;5014257;28;20050;-89
2021/11/07 05:33:31;;;;;;;14.63;10.18;;;4.90;99.90;;;;;;5020520;28;20046;-87
2021/11/07 05:35:58;;;;;;;14.90;10.95;;;4.80;99.90;;;;;;5034333;28;20077;-87
2021/11/07 05:38:25;;;;;;;16.80;10.52;;;4.70;99.90;;;;;;5014872;28;20046;-87
2021/11/07 05:40:52;;;;;;;16.40;10.80;;;4.70;99.90;;;;;;5014854;28;20064;-88
2021/11/07 05:43:21;;;;;;;21.55;11.55;;;4.70;99.90;;;;;;5013981;28;20046;-87
2021/11/07 05:45:49;;;;;;;14.25;9.02;;;4.70;99.90;;;;;;5016288;28;20053;-87
2021/11/07 05:48:16;;;;;;;11.70;9.55;;;4.80;99.90;;;;;;5013612;28;20060;-87
2021/11/07 05:50:44;;;;;;;12.25;9.43;;;4.80;99.90;;;;;;5013495;28;20140;-87
2021/11/07 05:53:11;;;;;;;11.00;8.82;;;4.80;99.90;;;;;;5013370;28;20060;-88
2021/11/07 05:55:38;;;;;;;16.05;9.50;;;4.90;99.90;;;;;;5014427;28;20045;-87
2021/11/07 05:58:05;;;;;;;10.55;9.00;;;5.00;99.90;;;;;;5014374;28;20053;-87
2021/11/07 06:00:32;;;;;;;10.90;9.00;;;5.00;99.90;;;;;;5014111;28;20522;-87
2021/11/07 06:03:06;;;;;;;10.63;7.95;;;5.10;99.90;;;;;;5014286;28;20053;-87
2021/11/07 06:05:36;;;;;;;;;;;5.10;99.90;;;;;;5013460;28;20487;-87
2021/11/07 06:08:04;;;;;;;11.20;9.07;;;5.10;99.90;;;;;;5013507;28;20023;-86
2021/11/07 06:10:34;;;;;;;13.18;9.00;;;5.10;99.90;;;;;;5013155;28;20053;-87
2021/11/07 06:13:01;;;;;;;16.83;9.48;;;5.10;99.90;;;;;;5013404;28;20050;-86
2021/11/07 06:15:28;;;;;;;11.15;8.98;;;5.10;99.90;;;;;;5013235;28;20059;-87
2021/11/07 06:17:56;;;;;;;11.45;9.25;;;5.00;99.90;;;;;;5013104;28;20054;-87
2021/11/07 06:20:23;;;;;;;10.35;8.85;;;5.00;99.90;;;;;;5013158;28;20049;-88
2021/11/07 06:22:50;;;;;;;11.73;8.52;;;4.90;99.90;;;;;;5013099;28;20554;-87
2021/11/07 06:25:17;;;;;;;8.65;7.75;;;4.90;99.90;;;;;;5012890;28;20487;-86
2021/11/07 06:27:44;;;;;;;10.48;8.23;;;4.90;99.90;;;;;;5013467;28;20479;-87
2021/11/07 06:30:11;;;;;;;11.55;9.73;;;4.90;99.90;;;;;;5013021;28;20046;-87
2021/11/07 06:32:38;;;;;;;17.17;13.68;;;4.80;99.90;;;;;;5012780;28;20064;-89
2021/11/07 06:35:07;;;;;;;9.70;8.70;;;4.90;99.90;;;;;;5013331;28;20559;-87
2021/11/07 06:37:34;;;;;;;13.10;9.77;;;4.80;99.90;;;;;;5013218;28;20060;-87
2021/11/07 06:40:02;;;;;;;6.28;5.60;;;4.80;99.90;;;;;;5013136;28;20046;-87
2021/11/07 06:42:28;;;;;;;6.63;5.40;;;4.80;99.90;;;;;;5013708;28;20133;-87
2021/11/07 06:44:55;;;;;;;5.95;4.82;;;4.90;99.90;;;;;;5013859;28;20063;-88
2021/11/07 06:47:22;;;;;;;4.38;3.97;;;4.90;99.90;;;;;;5012461;28;20060;-87
2021/11/07 06:49:49;;;;;;;3.88;3.58;;;4.90;99.90;;;;;;5015356;28;20046;-87
2021/11/07 06:52:16;;;;;;;4.32;3.92;;;5.00;99.90;;;;;;5029006;28;20077;-86
2021/11/07 06:54:43;;;;;;;3.28;3.08;;;5.00;99.90;;;;;;5020530;28;20127;-87
2021/11/07 06:57:10;;;;;;;2.58;2.38;;;5.10;99.90;;;;;;5012635;28;20052;-87
2021/11/07 06:59:37;;;;;;;2.30;2.20;;;5.10;99.90;;;;;;5013161;28;20060;-87
2021/11/07 07:02:04;;;;;;;2.40;2.20;;;5.10;99.90;;;;;;5013441;28;20058;-88
2021/11/07 07:04:31;;;;;;;2.10;2.00;;;5.10;99.90;;;;;;5012166;28;20046;-88
2021/11/07 07:06:58;;;;;;;2.10;2.00;;;5.20;99.90;;;;;;5012425;28;20060;-87
2021/11/07 07:09:27;;;;;;;2.00;1.90;;;5.20;99.90;;;;;;5015052;28;20110;-91
2021/11/07 07:12:07;;;;;;;2.60;2.40;;;5.20;99.90;;;;;;5016994;28;20057;-87
2021/11/07 07:14:43;;;;;;;2.00;1.90;;;5.20;99.90;;;;;;5015600;28;20057;-88
2021/11/07 07:17:21;;;;;;;1.70;1.60;;;5.20;99.90;;;;;;5015590;28;20050;-87
2021/11/07 07:23:04;;;;;;;2.38;2.28;;;5.10;99.90;;;;;;5012095;28;20148;-86
2021/11/07 07:33:30;;;;;;;1.87;1.77;;;5.10;99.90;;;;;;5032759;28;20051;-87
2021/11/07 07:35:57;;;;;;;2.25;2.15;;;5.10;99.90;;;;;;5015424;28;20300;-86
2021/11/07 07:38:25;;;;;;;2.90;2.70;;;5.00;99.90;;;;;;5015254;28;20398;-87
2021/11/07 07:40:52;;;;;;;2.45;2.22;;;5.00;99.90;;;;;;5016192;28;20045;-86
2021/11/07 07:43:19;;;;;;;2.58;2.30;;;5.00;99.90;;;;;;5015324;28;20046;-87
2021/11/07 07:45:46;;;;;;;4.43;2.10;;;5.00;99.90;;;;;;5015211;28;20088;-88
2021/11/07 07:48:16;;;;;;;2.30;2.20;;;5.10;99.90;;;;;;5015380;28;20056;-86
2021/11/07 07:50:43;;;;;;;2.42;2.22;;;5.10;99.90;;;;;;5015997;28;20083;-86
2021/11/07 07:53:10;;;;;;;2.42;2.33;;;5.10;99.90;;;;;;5015303;28;20053;-87
2021/11/07 07:55:37;;;;;;;2.58;2.28;;;5.00;99.90;;;;;;5032592;28;20053;-86
2021/11/07 07:58:04;;;;;;;2.60;2.40;;;5.00;99.90;;;;;;5015740;28;20120;-86
2021/11/07 08:00:30;;;;;;;2.17;1.95;;;5.10;99.90;;;;;;5033398;28;20053;-85
2021/11/07 08:02:57;;;;;;;2.13;2.03;;;5.10;99.90;;;;;;5035477;28;20422;-86
2021/11/07 08:05:24;;;;;;;2.97;2.78;;;5.10;99.90;;;;;;5019015;28;20052;-87
2021/11/07 08:07:51;;;;;;;2.78;2.58;;;5.10;99.90;;;;;;5044940;28;20113;-86
2021/11/07 08:10:19;;;;;;;1.85;1.75;;;5.10;99.90;;;;;;5018781;28;20136;-86
2021/11/07 08:12:45;;;;;;;2.15;2.05;;;5.20;99.90;;;;;;5019038;28;20049;-86
2021/11/07 08:15:13;;;;;;;2.30;2.00;;;5.30;99.90;;;;;;5018565;28;20053;-86
2021/11/07 08:17:41;;;;;;;2.00;1.90;;;5.30;99.90;;;;;;5036015;28;20136;-87
2021/11/07 08:20:10;;;;;;;1.98;1.88;;;5.40;99.90;;;;;;5020107;28;20049;-86
2021/11/07 08:22:37;;;;;;;1.50;1.50;;;5.40;99.90;;;;;;5019788;28;20052;-87
2021/11/07 08:25:19;;;;;;;1.65;1.48;;;5.50;99.90;;;;;;5020356;28;20060;-86
2021/11/07 08:27:49;;;;;;;1.60;1.50;;;5.50;99.90;;;;;;5019797;28;20064;-87
2021/11/07 08:30:20;;;;;;;1.60;1.50;;;5.50;99.90;;;;;;5018848;28;20047;-87
2021/11/07 08:32:47;;;;;;;1.05;1.05;;;5.50;99.90;;;;;;5019214;28;20048;-87
2021/11/07 08:35:14;;;;;;;1.20;1.20;;;5.60;99.90;;;;;;5035608;28;20056;-87
2021/11/07 08:40:11;;;;;;;0.82;0.82;;;5.70;99.90;;;;;;5034992;28;20050;-86
2021/11/07 08:42:50;;;;;;;0.80;0.80;;;5.80;99.90;;;;;;5035469;28;20053;-86
2021/11/07 09:04:21;;;;;;;1.00;0.95;;;6.30;99.90;;;;;;5037752;28;20046;-88
2021/11/07 09:09:25;;;;;;;0.50;0.50;;;6.10;99.90;;;;;;5037380;28;20475;-86
2021/11/07 09:11:54;;;;;;;0.40;0.40;;;6.10;99.90;;;;;;5037977;28;20045;-86
2021/11/07 09:14:24;;;;;;;0.40;0.40;;;6.30;99.90;;;;;;5037007;28;20064;-86
2021/11/07 09:16:53;;;;;;;2.72;0.93;;;6.80;99.90;;;;;;5019899;28;20051;-85
2021/11/07 09:19:23;;;;;;;0.60;0.47;;;7.10;99.90;;;;;;5020122;28;20116;-86
2021/11/07 09:21:56;;;;;;;0.40;0.40;;;7.10;99.90;;;;;;5022235;28;20111;-86
2021/11/07 09:24:37;;;;;;;0.40;0.40;;;7.00;99.90;;;;;;5032348;28;20118;-86
2021/11/07 09:30:02;;;;;;;0.40;0.40;;;6.60;99.90;;;;;;5037832;28;20045;-90
2021/11/07 09:37:49;;;;;;;1.33;1.23;;;6.70;99.90;;;;;;5036140;28;20049;-86
2021/11/07 09:40:17;;;;;;;4.32;1.05;;;6.80;99.90;;;;;;5037781;28;20071;-86
2021/11/07 09:47:51;;;;;;;1.83;1.45;;;6.90;99.90;;;;;;5041792;28;20054;-85
2021/11/07 09:50:19;;;;;;;1.63;1.50;;;7.10;99.90;;;;;;5019609;28;20130;-86
2021/11/07 09:52:51;;;;;;;1.88;1.70;;;7.20;99.90;;;;;;5020827;28;20113;-87
2021/11/07 09:55:23;;;;;;;2.78;2.05;;;7.10;99.90;;;;;;5039548;28;20073;-88
2021/11/07 09:57:52;;;;;;;2.35;1.55;;;7.10;99.90;;;;;;5038143;28;20140;-85
2021/11/07 10:00:25;;;;;;;1.50;1.40;;;7.10;99.90;;;;;;5022985;28;20049;-90
2021/11/07 10:02:52;;;;;;;1.83;1.73;;;7.00;99.90;;;;;;5022505;28;20049;-86
2021/11/07 10:05:20;;;;;;;2.10;2.00;;;6.90;99.90;;;;;;5023602;28;20192;-85
2021/11/07 10:07:56;;;;;;;2.85;2.10;;;6.90;99.90;;;;;;5026836;28;20132;-87
2021/11/07 10:10:25;;;;;;;1.88;1.77;;;6.80;99.90;;;;;;5045445;28;20045;-87
2021/11/07 10:12:57;;;;;;;1.92;1.83;;;6.70;99.90;;;;;;5029355;28;20060;-87
2021/11/07 10:15:42;;;;;;;2.70;2.33;;;6.70;99.90;;;;;;5023346;28;20410;-87
2021/11/07 10:18:15;;;;;;;2.10;2.00;;;6.70;99.90;;;;;;5022635;28;20123;-87
2021/11/07 10:20:49;;;;;;;3.30;3.10;;;6.60;99.90;;;;;;5022281;28;20524;-87
2021/11/07 10:23:26;;;;;;;3.38;3.10;;;6.50;99.90;;;;;;5018808;28;20049;-86
2021/11/07 10:26:12;;;;;;;3.90;3.60;;;6.40;99.90;;;;;;5020467;28;20046;-90
2021/11/07 10:45:05;;;;;;;4.97;4.60;;;6.00;99.90;;;;;;5040675;28;20482;-88
2021/11/07 10:48:01;;;;;;;5.32;4.82;;;6.00;99.90;;;;;;5043044;28;20064;-89
2021/11/07 10:53:18;;;;;;;6.18;5.57;;;6.10;99.90;;;;;;5039244;28;20049;-87
2021/11/07 10:55:51;;;;;;;5.72;5.03;;;6.10;99.90;;;;;;5040697;28;20053;-87
2021/11/07 10:58:30;;;;;;;5.28;4.82;;;6.10;99.90;;;;;;5005795;28;20144;-87
2021/11/07 11:01:01;;;;;;;4.75;4.30;;;6.30;99.90;;;;;;5041598;28;20079;-87
2021/11/07 11:03:28;;;;;;;5.18;4.75;;;6.40;99.90;;;;;;5020541;28;20059;-87
2021/11/07 11:06:05;;;;;;;4.85;4.38;;;6.40;99.90;;;;;;5038850;28;20049;-87
2021/11/07 11:08:44;;;;;;;4.63;4.13;;;6.50;99.90;;;;;;5024096;28;20128;-87
2021/11/07 11:13:57;;;;;;;8.05;4.60;;;6.50;99.90;;;;;;5037875;28;20125;-86
2021/11/07 11:19:33;;;;;;;5.30;4.80;;;6.50;99.90;;;;;;5037992;28;20052;-87
2021/11/07 11:25:06;;;;;;;5.53;4.97;;;6.40;99.90;;;;;;5036303;28;20053;-87
2021/11/07 11:30:34;;;;;;;;;;;6.60;99.90;;;;;;5037267;28;20046;-87
2021/11/07 11:38:28;;;;;;;3.70;3.40;;;6.80;99.90;;;;;;5041587;28;20136;-87
2021/11/07 11:41:03;;;;;;;3.97;3.67;;;6.90;99.90;;;;;;5041814;28;20144;-87
2021/11/07 11:43:39;;;;;;;3.60;3.05;;;7.00;99.90;;;;;;5024389;28;20051;-88
2021/11/07 11:46:28;;;;;;;3.45;3.25;;;7.10;99.90;;;;;;5004884;28;20054;-87
2021/11/07 11:54:21;;;;;;;2.88;2.67;;;7.40;99.90;;;;;;5032144;28;20048;-87
2021/11/07 11:57:43;;;;;;;2.15;2.05;;;7.60;99.90;;;;;;5012595;28;20081;-86
2021/11/07 12:03:06;;;;;;;2.38;2.20;;;7.90;99.90;;;;;;5022770;28;20475;-87
2021/11/07 12:06:04;;;;;;;2.63;2.40;;;7.90;99.90;;;;;;4999040;28;20486;-87
2021/11/07 12:08:37;;;;;;;2.28;2.15;;;7.90;99.90;;;;;;5021504;28;20096;-87
2021/11/07 12:11:42;;;;;;;2.10;2.00;;;8.00;99.90;;;;;;5004273;28;20425;-87
2021/11/07 12:14:14;;;;;;;3.10;1.87;;;7.90;99.90;;;;;;5004356;28;20487;-86
2021/11/07 12:16:56;;;;;;;1.80;1.70;;;7.90;99.90;;;;;;5003103;28;20053;-87
2021/11/07 12:19:37;;;;;;;1.60;1.50;;;8.00;99.90;;;;;;5004389;28;20056;-87
2021/11/07 12:22:22;;;;;;;1.50;1.13;;;8.00;99.90;;;;;;5005008;28;20557;-87
2021/11/07 12:24:49;;;;;;;1.52;1.42;;;7.90;99.90;;;;;;5004618;28;20049;-87
2021/11/07 12:27:25;;;;;;;1.60;1.55;;;7.90;99.90;;;;;;5023123;28;20132;-86
2021/11/07 12:30:03;;;;;;;1.20;1.20;;;7.80;99.90;;;;;;5023157;28;20064;-87
2021/11/07 12:32:37;;;;;;;1.60;1.48;;;7.70;99.90;;;;;;5005449;28;20046;-87
2021/11/07 12:35:37;;;;;;;1.67;1.25;;;7.80;99.90;;;;;;5004646;28;20061;-87
2021/11/07 12:41:12;;;;;;;1.92;1.83;;;7.70;99.90;;;;;;5016611;28;20064;-87
2021/11/07 12:43:45;;;;;;;1.50;1.40;;;7.60;99.90;;;;;;4999169;28;20137;-86
2021/11/07 12:49:15;;;;;;;1.70;1.60;;;7.60;99.90;;;;;;5033986;28;20132;-86
2021/11/07 12:51:46;;;;;;;2.63;1.60;;;7.70;99.90;;;;;;5023019;28;20069;-88
2021/11/07 12:54:41;;;;;;;1.85;1.75;;;7.70;99.90;;;;;;5016093;28;20045;-87
2021/11/07 12:57:18;;;;;;;1.98;1.88;;;7.70;99.90;;;;;;5008177;28;20057;-88
2021/11/07 12:59:51;;;;;;;2.22;2.08;;;7.70;99.90;;;;;;5015896;28;20115;-87
2021/11/07 13:02:18;;;;;;;2.85;2.67;;;7.70;99.90;;;;;;5016224;28;20513;-89
2021/11/07 13:05:05;;;;;;;2.53;2.35;;;7.70;99.90;;;;;;5016733;28;20536;-87
2021/11/07 13:08:20;;;;;;;2.72;2.53;;;7.70;99.90;;;;;;5035633;28;20072;-87
2021/11/07 13:10:47;;;;;;;3.38;3.17;;;7.70;99.90;;;;;;5026495;28;20077;-88
2021/11/07 13:13:37;;;;;;;2.90;2.70;;;7.80;99.90;;;;;;5034934;28;20410;-87
2021/11/07 13:16:19;;;;;;;7.45;4.47;;;7.70;99.90;;;;;;5035033;28;20059;-87
2021/11/07 13:22:01;;;;;;;3.70;3.40;;;7.80;99.90;;;;;;5001765;28;20060;-87
2021/11/07 13:24:42;;;;;;;3.13;2.80;;;8.00;99.90;;;;;;5017216;28;20085;-87
2021/11/07 13:27:31;;;;;;;3.05;2.55;;;8.10;99.90;;;;;;5017028;28;20042;-88
2021/11/07 13:30:04;;;;;;;3.42;3.17;;;8.10;99.90;;;;;;5031655;28;20049;-86
2021/11/07 13:32:32;;;;;;;3.00;2.80;;;8.00;99.90;;;;;;5017142;28;20081;-87
2021/11/07 13:35:07;;;;;;;2.65;2.45;;;8.00;99.90;;;;;;5016869;28;20409;-88
2021/11/07 13:38:06;;;;;;;2.70;2.50;;;8.20;99.90;;;;;;5016906;28;20050;-88
2021/11/07 13:40:38;;;;;;;2.47;2.25;;;8.70;99.90;;;;;;5016989;28;20140;-88
2021/11/07 13:43:09;;;;;;;2.70;2.50;;;8.80;99.90;;;;;;5017119;28;20125;-88
2021/11/07 13:45:40;;;;;;;2.75;2.55;;;8.80;99.90;;;;;;5016781;28;20473;-87
2021/11/07 13:48:21;;;;;;;2.50;2.35;;;8.90;99.90;;;;;;5016596;28;20409;-87
2021/11/07 13:50:52;;;;;;;14.73;4.07;;;8.90;99.90;;;;;;5016824;28;20052;-89
2021/11/07 13:53:34;;;;;;;4.00;2.13;;;8.70;99.90;;;;;;5016791;28;20486;-88
2021/11/07 13:56:05;;;;;;;3.38;2.20;;;8.70;99.90;;;;;;5016507;28;20506;-87
2021/11/07 13:58:34;;;;;;;1.98;1.88;;;8.70;99.90;;;;;;5033741;28;20049;-88
2021/11/07 14:01:04;;;;;;;2.30;1.52;;;8.60;99.90;;;;;;5016048;28;20052;-88
2021/11/07 14:03:32;;;;;;;2.72;2.10;;;8.60;99.90;;;;;;5016406;28;20053;-88
2021/11/07 14:08:45;;;;;;;3.63;1.75;;;8.60;99.90;;;;;;5033840;28;20049;-88
2021/11/07 14:11:14;;;;;;;2.17;1.88;;;8.70;99.90;;;;;;5016356;28;20080;-88
2021/11/07 14:13:44;;;;;;;2.15;1.60;;;8.80;99.90;;;;;;5016291;28;20052;-88
2021/11/07 14:16:12;;;;;;;3.03;1.83;;;8.80;99.90;;;;;;5033547;28;20337;-88
2021/11/07 14:18:44;;;;;;;1.50;1.40;;;8.80;99.90;;;;;;5033728;28;20480;-88
2021/11/07 14:21:14;;;;;;;2.35;1.65;;;8.80;99.90;;;;;;5016065;28;20550;-88
2021/11/07 14:23:49;;;;;;;2.63;1.60;;;8.90;99.90;;;;;;5016095;28;20068;-88
2021/11/07 14:28:53;;;;;;;2.10;1.90;;;9.10;99.90;;;;;;5033549;28;20075;-88
2021/11/07 14:31:24;;;;;;;2.70;1.80;;;9.20;99.90;;;;;;5016146;28;20408;-88
2021/11/07 14:34:02;;;;;;;1.75;1.55;;;9.30;99.90;;;;;;5033509;28;20060;-88
2021/11/07 14:36:39;;;;;;;3.75;2.13;;;9.30;99.90;;;;;;5033070;28;20051;-89
2021/11/07 14:39:44;;;;;;;3.85;1.65;;;9.20;99.90;;;;;;5016091;28;20060;-88
2021/11/07 14:45:43;;;;;;;4.95;1.83;;;9.00;99.90;;;;;;5033339;28;20053;-88
2021/11/07 14:48:34;;;;;;;1.92;1.50;;;9.00;99.90;;;;;;5015561;28;20414;-87
2021/11/07 14:59:36;;;;;;;5.35;2.63;;;8.80;99.90;;;;;;5032993;28;20059;-88
2021/11/07 15:02:45;;;;;;;4.57;1.80;;;8.80;99.90;;;;;;5015554;28;20049;-88
2021/11/07 15:08:27;;;;;;;2.58;1.73;;;8.60;99.90;;;;;;5033151;28;20053;-88
2021/11/07 15:11:30;;;;;;;2.70;1.25;;;8.50;99.90;;;;;;5033529;28;20140;-88
2021/11/07 15:14:28;;;;;;;3.05;1.42;;;8.30;99.90;;;;;;5019614;28;20384;-87
2021/11/07 15:17:08;;;;;;;1.95;1.10;;;8.20;99.90;;;;;;5037010;28;20049;-88
2021/11/07 15:19:41;;;;;;;2.53;1.20;;;8.10;99.90;;;;;;5019550;28;20056;-88
2021/11/07 15:22:19;;;;;;;4.95;1.65;;;8.00;99.90;;;;;;5019638;28;20406;-88
2021/11/07 15:24:47;;;;;;;2.55;1.65;;;7.90;99.90;;;;;;5019726;28;20088;-88
2021/11/07 15:27:19;;;;;;;3.22;1.60;;;7.80;99.90;;;;;;5019534;28;20042;-88
2021/11/07 15:29:59;;;;;;;5.18;1.50;;;7.70;99.90;;;;;;5019313;28;20085;-88
2021/11/07 15:32:30;;;;;;;3.17;2.17;;;7.50;99.90;;;;;;5019325;28;20617;-88
2021/11/07 15:34:57;;;;;;;1.98;1.77;;;7.40;99.90;;;;;;5019524;28;20065;-88
2021/11/07 15:37:28;;;;;;;2.88;1.58;;;7.30;99.90;;;;;;5019151;28;20041;-88
2021/11/07 15:39:57;;;;;;;3.20;1.80;;;7.20;99.90;;;;;;5036967;28;20289;-87
2021/11/07 15:42:37;;;;;;;3.55;1.63;;;7.20;99.90;;;;;;5036741;28;20092;-88